Time;durP1;ratioP1;P1;durP2;ratioP2;P2;SDS_P1;SDS_P2;PMS_P1;PMS_P2;Temp;Humidity;BMP_temperature;BMP_pressure;BME280_temperature;BME280_humidity;BME280_pressure;Samples;Min_cycle;Max_cycle;Signal;HPM_P1;HPM_P2
2023/08/09 00:13:04;;;;;;;3.65;1.40;;;12.00;99.90;;;;;;5109155;27;20512;-59
2023/08/09 00:15:41;;;;;;;5.70;1.77;;;12.00;99.90;;;;;;5112769;28;20059;-58
2023/08/09 00:18:06;;;;;;;4.97;1.77;;;12.00;99.90;;;;;;5113518;28;20146;-58
2023/08/09 00:20:32;;;;;;;5.72;1.90;;;12.00;99.90;;;;;;5113755;28;20055;-59
2023/08/09 00:22:58;;;;;;;5.85;2.00;;;12.00;99.90;;;;;;5112046;28;20043;-58
2023/08/09 00:25:24;;;;;;;5.20;1.50;;;12.00;99.90;;;;;;5113601;28;20043;-58
2023/08/09 00:27:50;;;;;;;5.45;1.73;;;12.00;99.90;;;;;;5114955;28;20050;-58
2023/08/09 00:30:18;;;;;;;4.10;1.90;;;12.00;99.90;;;;;;5111323;28;20032;-58
2023/08/09 00:32:44;;;;;;;6.55;1.90;;;12.00;99.90;;;;;;5114518;28;20039;-57
2023/08/09 00:35:09;;;;;;;2.90;1.50;;;12.00;99.90;;;;;;5114064;28;20040;-58
2023/08/09 00:37:37;;;;;;;7.65;1.63;;;11.90;99.90;;;;;;5110558;28;20066;-58
2023/08/09 00:40:07;;;;;;;5.05;2.00;;;11.90;99.90;;;;;;5114084;28;20398;-58
2023/08/09 00:42:33;;;;;;;7.45;1.92;;;11.90;99.90;;;;;;5095438;28;20071;-58
2023/08/09 00:44:59;;;;;;;3.45;1.63;;;11.90;99.90;;;;;;5113057;28;20125;-58
2023/08/09 00:47:25;;;;;;;7.18;2.10;;;11.90;99.90;;;;;;5114313;28;20031;-58
2023/08/09 00:49:50;;;;;;;5.68;1.95;;;11.80;99.90;;;;;;5113803;28;20576;-58
2023/08/09 00:52:19;;;;;;;6.32;1.75;;;11.80;99.90;;;;;;5113428;28;20687;-59
2023/08/09 00:54:48;;;;;;;5.43;1.88;;;11.80;99.90;;;;;;5112972;28;20043;-58
2023/08/09 00:57:14;;;;;;;3.60;1.60;;;11.70;99.90;;;;;;5113333;28;20667;-58
2023/08/09 00:59:40;;;;;;;5.10;1.52;;;11.80;99.90;;;;;;5114488;28;20150;-58
2023/08/09 01:02:08;;;;;;;4.72;1.65;;;11.70;99.90;;;;;;5094996;28;20074;-59
2023/08/09 01:04:34;;;;;;;5.00;1.70;;;11.70;99.90;;;;;;5106640;28;20043;-58
2023/08/09 01:07:09;;;;;;;7.75;1.80;;;11.70;99.90;;;;;;5113938;28;20046;-58
2023/08/09 01:09:47;;;;;;;3.38;1.60;;;11.70;99.90;;;;;;5111081;28;20043;-58
2023/08/09 01:12:19;;;;;;;3.33;1.98;;;11.70;99.90;;;;;;5111053;28;20047;-55
2023/08/09 01:14:51;;;;;;;3.08;1.60;;;11.60;99.90;;;;;;5110739;28;20056;-58
2023/08/09 01:17:18;;;;;;;5.22;1.80;;;11.60;99.90;;;;;;5111130;28;20078;-58
2023/08/09 01:19:51;;;;;;;4.95;2.00;;;11.60;99.90;;;;;;5114685;28;20044;-58
2023/08/09 01:22:22;;;;;;;8.05;1.75;;;11.60;99.90;;;;;;5111805;28;20038;-58
2023/08/09 01:24:48;;;;;;;3.88;1.70;;;11.60;99.90;;;;;;5094663;28;20031;-57
2023/08/09 01:27:14;;;;;;;4.35;1.52;;;11.60;99.90;;;;;;5112759;28;20050;-58
2023/08/09 01:29:41;;;;;;;4.72;1.77;;;11.60;99.90;;;;;;5113503;28;20040;-59
2023/08/09 01:32:07;;;;;;;4.07;1.58;;;11.60;99.90;;;;;;5112475;28;20619;-57
2023/08/09 01:34:34;;;;;;;4.30;1.50;;;11.60;99.90;;;;;;5112610;28;20036;-55
2023/08/09 01:37:19;;;;;;;5.03;1.77;;;11.60;99.90;;;;;;5094370;28;20261;-58
2023/08/09 01:39:49;;;;;;;4.00;1.50;;;11.60;99.90;;;;;;5093963;28;20056;-57
2023/08/09 01:42:15;;;;;;;3.75;1.60;;;11.50;99.90;;;;;;5111002;28;20073;-58
2023/08/09 01:44:41;;;;;;;5.28;1.73;;;11.50;99.90;;;;;;5112618;28;20452;-57
2023/08/09 01:47:08;;;;;;;3.35;1.83;;;11.50;99.90;;;;;;5113370;28;20032;-58
2023/08/09 01:49:34;;;;;;;11.23;1.85;;;11.50;99.90;;;;;;5112245;28;20043;-58
2023/08/09 01:51:59;;;;;;;5.00;1.70;;;11.50;99.90;;;;;;5095287;28;20118;-58
2023/08/09 01:54:25;;;;;;;4.32;1.70;;;11.50;99.90;;;;;;5112120;28;20040;-59
2023/08/09 01:56:51;;;;;;;5.28;1.85;;;11.50;99.90;;;;;;5112189;28;20028;-54
2023/08/09 01:59:18;;;;;;;8.43;1.90;;;11.50;99.90;;;;;;5112127;28;20059;-59
2023/08/09 02:01:43;;;;;;;5.75;1.65;;;11.40;99.90;;;;;;5112599;28;20113;-57
2023/08/09 02:04:10;;;;;;;6.28;1.40;;;11.40;99.90;;;;;;5109989;28;20036;-59
2023/08/09 02:06:38;;;;;;;8.68;2.20;;;11.40;99.90;;;;;;5110407;28;21025;-56
2023/08/09 02:09:06;;;;;;;4.55;1.50;;;11.40;99.90;;;;;;5091548;28;20040;-56
2023/08/09 02:11:31;;;;;;;3.58;1.63;;;11.40;99.90;;;;;;5109807;28;20040;-58
2023/08/09 02:13:57;;;;;;;2.50;1.80;;;11.30;99.90;;;;;;5091299;28;20054;-56
2023/08/09 02:16:23;;;;;;;4.20;1.50;;;11.30;99.90;;;;;;5105315;28;20133;-57
2023/08/09 02:18:49;;;;;;;2.90;1.77;;;11.20;99.90;;;;;;5089499;28;20036;-58
2023/08/09 02:21:14;;;;;;;3.88;1.70;;;11.10;99.90;;;;;;5107893;28;20040;-59
2023/08/09 02:23:40;;;;;;;3.92;1.90;;;11.10;99.90;;;;;;5108613;28;20044;-59
2023/08/09 02:26:08;;;;;;;5.20;1.75;;;11.10;99.90;;;;;;5108472;28;20039;-58
2023/08/09 02:28:34;;;;;;;3.90;1.80;;;11.10;99.90;;;;;;5110212;28;20039;-58
2023/08/09 02:31:00;;;;;;;5.45;1.80;;;11.10;99.90;;;;;;5109356;28;20058;-58
2023/08/09 02:33:25;;;;;;;5.05;1.80;;;11.10;99.90;;;;;;5109162;28;20494;-58
2023/08/09 02:35:54;;;;;;;4.30;1.90;;;11.10;99.90;;;;;;5108990;28;20040;-58
2023/08/09 02:38:21;;;;;;;4.22;1.60;;;11.10;99.90;;;;;;5107110;28;20666;-56
2023/08/09 02:40:49;;;;;;;3.47;1.63;;;11.10;99.90;;;;;;5111287;28;20069;-57
2023/08/09 02:43:16;;;;;;;8.32;2.10;;;11.00;99.90;;;;;;5111192;28;20090;-58
2023/08/09 02:45:45;;;;;;;2.72;1.58;;;11.10;99.90;;;;;;5109481;28;20078;-59
2023/08/09 02:48:11;;;;;;;5.78;1.80;;;11.00;99.90;;;;;;5111364;28;20036;-59
2023/08/09 02:50:37;;;;;;;5.82;1.60;;;11.00;99.90;;;;;;5112409;28;20048;-59
2023/08/09 02:53:04;;;;;;;4.15;1.63;;;11.00;99.90;;;;;;5111075;28;20115;-59
2023/08/09 02:55:33;;;;;;;4.10;1.77;;;11.00;99.90;;;;;;5093195;28;20100;-59
2023/08/09 02:58:00;;;;;;;5.22;1.75;;;11.00;99.90;;;;;;5092131;28;20085;-55
2023/08/09 03:00:26;;;;;;;3.83;1.70;;;11.00;99.90;;;;;;5111494;28;20032;-59
2023/08/09 03:02:52;;;;;;;4.35;1.77;;;10.90;99.90;;;;;;5114773;28;20042;-59
2023/08/09 03:05:18;;;;;;;4.88;1.70;;;10.90;99.90;;;;;;5114393;28;20109;-59
2023/08/09 03:07:44;;;;;;;3.63;1.75;;;10.90;99.90;;;;;;5113160;28;20122;-55
2023/08/09 03:10:09;;;;;;;3.55;1.58;;;10.90;99.90;;;;;;5112531;28;20032;-58
2023/08/09 03:12:36;;;;;;;6.10;1.63;;;10.80;99.90;;;;;;5093095;28;20051;-58
2023/08/09 03:15:04;;;;;;;4.82;1.92;;;10.80;99.90;;;;;;5111102;28;20047;-52
2023/08/09 03:17:30;;;;;;;3.40;1.90;;;10.80;99.90;;;;;;5111340;28;20040;-58
2023/08/09 03:19:56;;;;;;;4.32;1.55;;;10.80;99.90;;;;;;5114876;28;20055;-58
2023/08/09 03:22:23;;;;;;;6.13;2.13;;;10.80;99.90;;;;;;5114434;28;20067;-59
2023/08/09 03:24:49;;;;;;;3.65;1.80;;;10.80;99.90;;;;;;5113131;28;20393;-59
2023/08/09 03:27:15;;;;;;;7.22;2.05;;;10.80;99.90;;;;;;5092901;28;20095;-57
2023/08/09 03:29:41;;;;;;;4.82;1.60;;;10.80;99.90;;;;;;5094523;28;20032;-59
2023/08/09 03:32:07;;;;;;;6.00;1.90;;;10.80;99.90;;;;;;5095088;28;20129;-58
2023/08/09 03:34:33;;;;;;;3.63;1.65;;;10.80;99.90;;;;;;5114839;27;20047;-58
2023/08/09 03:36:58;;;;;;;4.13;2.10;;;10.70;99.90;;;;;;5112302;28;20047;-58
2023/08/09 03:39:25;;;;;;;4.88;1.58;;;10.60;99.90;;;;;;5113437;28;20046;-58
2023/08/09 03:41:51;;;;;;;6.80;1.90;;;10.60;99.90;;;;;;5114304;28;20062;-58
2023/08/09 03:44:17;;;;;;;4.38;1.50;;;10.60;99.90;;;;;;5113783;28;20126;-57
2023/08/09 03:46:43;;;;;;;4.13;2.13;;;10.60;99.90;;;;;;5111189;28;20580;-58
2023/08/09 03:49:09;;;;;;;6.60;1.90;;;10.60;99.90;;;;;;5112915;28;20046;-55
2023/08/09 03:51:35;;;;;;;1.85;1.63;;;10.60;99.90;;;;;;5113121;28;20124;-58
2023/08/09 03:54:01;;;;;;;4.65;1.80;;;10.60;99.90;;;;;;5112478;27;20032;-58
2023/08/09 03:56:27;;;;;;;4.40;1.77;;;10.60;99.90;;;;;;5113638;28;20039;-58
2023/08/09 03:58:53;;;;;;;3.28;1.75;;;10.50;99.90;;;;;;5114082;28;20077;-57
2023/08/09 04:01:18;;;;;;;5.38;1.90;;;10.60;99.90;;;;;;5113923;28;20035;-58
2023/08/09 04:03:44;;;;;;;2.50;1.55;;;10.60;99.90;;;;;;5112139;28;20049;-58
2023/08/09 04:06:14;;;;;;;5.95;1.70;;;10.50;99.90;;;;;;5114533;28;20028;-58
2023/08/09 04:08:39;;;;;;;4.80;1.83;;;10.50;99.90;;;;;;5112849;28;20073;-59
2023/08/09 04:11:05;;;;;;;3.10;1.70;;;10.60;99.90;;;;;;5115495;28;20048;-59
2023/08/09 04:13:31;;;;;;;6.03;1.85;;;10.60;99.90;;;;;;5096777;28;20043;-58
2023/08/09 04:15:57;;;;;;;6.18;1.83;;;10.60;99.90;;;;;;5111481;28;20070;-56
2023/08/09 04:18:23;;;;;;;4.18;1.60;;;10.60;99.90;;;;;;5112108;27;20044;-57
2023/08/09 04:20:50;;;;;;;3.83;1.70;;;10.60;99.90;;;;;;5111698;28;20036;-58
2023/08/09 04:23:17;;;;;;;5.15;2.17;;;10.60;99.90;;;;;;5110273;28;20404;-57
2023/08/09 04:25:43;;;;;;;3.50;1.75;;;10.60;99.90;;;;;;5112593;28;20051;-59
2023/08/09 04:28:09;;;;;;;4.57;2.00;;;10.60;99.90;;;;;;5111520;28;20031;-56
2023/08/09 04:30:35;;;;;;;3.50;1.60;;;10.60;99.90;;;;;;5111078;28;20047;-59
2023/08/09 04:33:03;;;;;;;8.48;1.95;;;10.60;99.90;;;;;;5108604;28;20028;-59
2023/08/09 04:35:33;;;;;;;3.20;1.48;;;10.60;99.90;;;;;;5109780;27;20073;-57
2023/08/09 04:38:00;;;;;;;3.40;1.90;;;10.70;99.90;;;;;;5111239;28;20047;-58
2023/08/09 04:40:26;;;;;;;5.20;1.73;;;10.60;99.90;;;;;;5110133;28;20046;-59
2023/08/09 04:42:52;;;;;;;4.82;1.75;;;10.60;99.90;;;;;;5109994;28;20103;-55
2023/08/09 04:45:18;;;;;;;9.88;2.00;;;10.60;99.90;;;;;;5109739;28;20036;-55
2023/08/09 04:47:44;;;;;;;5.22;2.03;;;10.60;99.90;;;;;;5110235;27;20117;-58
2023/08/09 04:50:10;;;;;;;4.93;1.73;;;10.60;99.90;;;;;;5112804;28;20047;-58
2023/08/09 04:52:36;;;;;;;5.75;1.83;;;10.70;99.90;;;;;;5111986;28;20048;-59
2023/08/09 04:55:03;;;;;;;6.45;1.85;;;10.70;99.90;;;;;;5110603;28;20072;-58
2023/08/09 04:57:29;;;;;;;5.53;2.08;;;10.70;99.90;;;;;;5113459;28;20043;-58
2023/08/09 04:59:54;;;;;;;5.47;1.90;;;10.70;99.90;;;;;;5113599;28;20508;-57
2023/08/09 05:02:20;;;;;;;4.10;1.63;;;10.80;99.90;;;;;;5092871;28;20074;-58
2023/08/09 05:04:46;;;;;;;5.93;1.92;;;10.80;99.90;;;;;;5097748;28;20047;-58
2023/08/09 05:07:11;;;;;;;5.78;1.77;;;10.80;99.90;;;;;;5111747;28;20087;-56
2023/08/09 05:09:37;;;;;;;3.42;1.77;;;10.90;99.90;;;;;;5112186;28;20044;-56
2023/08/09 05:12:03;;;;;;;7.65;2.17;;;11.00;99.90;;;;;;5110537;28;20166;-55
2023/08/09 05:14:29;;;;;;;6.68;1.90;;;11.10;99.90;;;;;;5112058;28;20056;-58
2023/08/09 05:16:55;;;;;;;5.07;2.00;;;11.10;99.90;;;;;;5113312;28;20099;-57
2023/08/09 05:19:21;;;;;;;4.00;1.80;;;11.10;99.90;;;;;;5092606;28;20099;-59
2023/08/09 05:21:47;;;;;;;3.42;1.88;;;11.20;99.90;;;;;;5110851;28;20483;-58
2023/08/09 05:24:14;;;;;;;5.43;2.10;;;11.20;99.90;;;;;;5112067;28;20063;-59
2023/08/09 05:26:40;;;;;;;6.40;2.25;;;11.30;99.90;;;;;;5111404;28;20035;-56
2023/08/09 05:29:06;;;;;;;7.72;1.92;;;11.40;99.90;;;;;;5113778;28;20406;-55
2023/08/09 05:31:32;;;;;;;3.63;1.75;;;11.40;99.90;;;;;;5112686;28;20028;-58
2023/08/09 05:33:58;;;;;;;4.43;1.90;;;11.50;99.90;;;;;;5111947;28;20028;-58
2023/08/09 05:36:24;;;;;;;6.38;2.00;;;11.50;99.90;;;;;;5113599;28;20059;-57
2023/08/09 05:38:50;;;;;;;3.75;2.00;;;11.60;99.90;;;;;;5111579;28;20027;-57
2023/08/09 05:41:16;;;;;;;6.35;1.50;;;11.60;99.90;;;;;;5112430;28;20046;-58
2023/08/09 05:43:41;;;;;;;7.03;2.45;;;11.70;99.90;;;;;;5110807;28;20082;-57
2023/08/09 05:46:07;;;;;;;6.97;2.00;;;11.80;99.90;;;;;;5111453;28;20035;-58
2023/08/09 05:48:34;;;;;;;3.80;2.00;;;11.80;99.90;;;;;;5092965;28;20036;-58
2023/08/09 05:51:00;;;;;;;10.02;2.13;;;11.90;99.90;;;;;;5094516;28;20036;-58
2023/08/09 05:53:25;;;;;;;5.47;1.70;;;12.00;99.90;;;;;;5111485;28;20051;-58
2023/08/09 05:55:51;;;;;;;2.65;1.60;;;12.00;99.90;;;;;;5113054;28;20043;-58
2023/08/09 05:58:17;;;;;;;6.32;1.80;;;12.10;99.90;;;;;;5112017;28;20046;-59
2023/08/09 06:00:43;;;;;;;3.42;1.90;;;12.20;99.90;;;;;;5093314;28;21084;-58
2023/08/09 06:03:09;;;;;;;7.18;2.00;;;12.20;99.90;;;;;;5110726;28;20047;-56
2023/08/09 06:05:35;;;;;;;6.97;1.90;;;12.30;99.90;;;;;;5112174;28;20514;-58
2023/08/09 06:08:00;;;;;;;4.75;2.20;;;12.40;99.90;;;;;;5111808;28;20050;-58
2023/08/09 06:10:26;;;;;;;6.53;1.80;;;12.40;99.90;;;;;;5112459;28;20091;-56
2023/08/09 06:12:53;;;;;;;4.40;1.70;;;12.50;99.90;;;;;;5110419;28;20039;-59
2023/08/09 06:15:20;;;;;;;5.22;1.77;;;12.60;99.90;;;;;;5094227;28;21089;-59
2023/08/09 06:17:46;;;;;;;4.13;1.80;;;12.60;99.90;;;;;;5110360;28;20374;-57
2023/08/09 06:20:15;;;;;;;5.35;1.92;;;12.70;99.90;;;;;;5112235;28;20072;-58
2023/08/09 06:22:41;;;;;;;7.68;1.98;;;12.80;99.90;;;;;;5083372;28;20127;-57
2023/08/09 06:25:08;;;;;;;7.93;1.80;;;13.00;99.90;;;;;;5109603;28;20039;-58
2023/08/09 06:27:34;;;;;;;4.53;1.63;;;13.00;99.90;;;;;;5108918;28;20080;-56
2023/08/09 06:30:00;;;;;;;3.42;1.60;;;13.10;99.90;;;;;;5109671;28;20032;-58
2023/08/09 06:32:27;;;;;;;3.50;1.63;;;13.30;99.90;;;;;;5109687;28;20050;-58
2023/08/09 06:34:52;;;;;;;3.13;1.67;;;13.30;99.90;;;;;;5112629;28;20050;-58
2023/08/09 06:37:18;;;;;;;3.78;1.50;;;13.40;99.90;;;;;;5110701;28;20044;-58
2023/08/09 06:39:44;;;;;;;6.00;1.88;;;13.50;99.90;;;;;;5112684;28;20047;-55
2023/08/09 06:42:13;;;;;;;2.58;1.67;;;13.70;99.90;;;;;;5113522;28;20043;-59
2023/08/09 06:44:39;;;;;;;4.43;1.77;;;13.70;99.90;;;;;;5094713;28;20032;-57
2023/08/09 06:47:06;;;;;;;4.90;1.60;;;13.80;99.90;;;;;;5110250;28;20068;-56
2023/08/09 06:49:32;;;;;;;3.53;1.70;;;14.00;99.90;;;;;;5111690;28;20043;-59
2023/08/09 06:52:00;;;;;;;3.17;1.60;;;14.10;99.90;;;;;;5092596;28;20066;-56
2023/08/09 06:54:26;;;;;;;7.28;1.85;;;14.20;99.90;;;;;;5110472;28;20043;-58
2023/08/09 06:56:52;;;;;;;6.93;1.70;;;14.30;99.90;;;;;;5093116;28;20032;-58
2023/08/09 06:59:18;;;;;;;12.38;2.42;;;14.40;99.90;;;;;;5092780;28;20055;-57
2023/08/09 07:01:47;;;;;;;3.65;1.60;;;14.50;99.90;;;;;;5110321;28;20086;-59
2023/08/09 07:04:13;;;;;;;5.18;1.60;;;14.70;99.90;;;;;;5096550;28;20040;-58
2023/08/09 07:06:39;;;;;;;4.13;1.25;;;14.80;99.90;;;;;;5097771;28;20046;-59
2023/08/09 07:09:05;;;;;;;7.03;1.90;;;14.90;99.90;;;;;;5110032;28;20059;-59
2023/08/09 07:11:32;;;;;;;2.53;1.55;;;15.00;99.90;;;;;;5109108;28;20069;-58
2023/08/09 07:13:58;;;;;;;5.65;1.70;;;15.10;99.90;;;;;;5109162;28;20921;-58
2023/08/09 07:16:24;;;;;;;3.58;1.38;;;15.30;99.90;;;;;;5088236;28;20048;-58
2023/08/09 07:18:50;;;;;;;11.73;1.58;;;15.40;99.90;;;;;;5095993;28;20044;-59
2023/08/09 07:21:16;;;;;;;3.08;1.42;;;15.50;99.90;;;;;;5106861;28;20630;-58
2023/08/09 07:23:41;;;;;;;6.13;1.75;;;15.60;99.90;;;;;;5105776;28;20068;-59
2023/08/09 07:26:07;;;;;;;3.38;1.35;;;15.70;99.90;;;;;;5105703;28;20046;-58
2023/08/09 07:28:33;;;;;;;3.78;1.60;;;15.80;99.90;;;;;;5106912;28;20532;-59
2023/08/09 07:30:59;;;;;;;4.07;1.23;;;16.00;99.90;;;;;;5102509;28;20486;-59
2023/08/09 07:33:24;;;;;;;8.00;1.48;;;16.10;99.90;;;;;;5087666;28;20052;-59
2023/08/09 07:35:50;;;;;;;3.25;1.42;;;16.20;99.90;;;;;;5105235;28;20096;-59
2023/08/09 07:38:17;;;;;;;4.03;1.20;;;16.30;99.90;;;;;;5103884;28;20080;-57
2023/08/09 07:40:43;;;;;;;2.60;1.20;;;16.40;99.90;;;;;;5103116;28;20054;-59
2023/08/09 07:43:08;;;;;;;4.45;1.40;;;16.50;99.90;;;;;;5104189;28;20138;-58
2023/08/09 07:45:34;;;;;;;3.47;1.10;;;16.60;99.90;;;;;;5103676;28;20031;-59
2023/08/09 07:48:00;;;;;;;2.83;1.23;;;16.80;99.90;;;;;;5104407;28;20067;-58
2023/08/09 07:50:26;;;;;;;2.58;1.15;;;16.80;99.90;;;;;;5108111;28;20039;-59
2023/08/09 07:52:52;;;;;;;3.35;1.20;;;16.90;99.90;;;;;;5108890;28;20048;-59
2023/08/09 07:55:18;;;;;;;5.90;1.40;;;17.00;99.90;;;;;;5107530;28;20494;-59
2023/08/09 07:57:44;;;;;;;3.10;1.10;;;17.10;99.90;;;;;;5106389;28;20060;-59
2023/08/09 08:00:17;;;;;;;4.07;1.30;;;17.30;99.90;;;;;;5108188;28;20035;-57
2023/08/09 08:02:44;;;;;;;;;;;17.40;99.90;;;;;;5108243;28;20036;-57
2023/08/09 08:05:11;;;;;;;2.75;1.27;;;17.50;99.90;;;;;;5107119;28;20353;-59
2023/08/09 08:07:40;;;;;;;3.20;1.10;;;17.60;99.90;;;;;;5107312;28;20048;-58
2023/08/09 08:10:13;;;;;;;6.43;1.55;;;17.70;99.90;;;;;;5108547;28;20047;-58
2023/08/09 08:12:40;;;;;;;8.00;1.25;;;17.70;99.90;;;;;;5107815;28;20043;-56
2023/08/09 08:15:07;;;;;;;1.98;0.95;;;17.80;99.90;;;;;;5107976;28;20064;-59
2023/08/09 08:17:33;;;;;;;4.88;1.30;;;17.90;99.90;;;;;;5109597;28;20497;-59
2023/08/09 08:19:59;;;;;;;4.93;1.23;;;18.00;99.90;;;;;;5110470;28;20043;-59
2023/08/09 08:22:25;;;;;;;7.88;1.25;;;18.10;99.90;;;;;;5107104;28;20037;-59
2023/08/09 08:24:51;;;;;;;1.48;0.93;;;18.10;99.90;;;;;;5091674;28;20181;-59
2023/08/09 08:27:17;;;;;;;5.95;1.50;;;18.20;99.90;;;;;;5109709;28;20032;-59
2023/08/09 08:29:42;;;;;;;3.63;1.30;;;18.40;99.90;;;;;;5108973;28;20115;-59
2023/08/09 08:32:10;;;;;;;4.72;1.25;;;18.50;99.90;;;;;;5108645;28;20054;-59
2023/08/09 08:34:37;;;;;;;5.65;1.25;;;18.70;99.90;;;;;;5110697;27;20138;-59
2023/08/09 08:37:04;;;;;;;3.17;1.20;;;18.90;99.90;;;;;;5097807;28;20027;-60
2023/08/09 08:39:35;;;;;;;5.45;1.38;;;18.80;99.90;;;;;;5092485;28;20035;-58
2023/08/09 08:42:01;;;;;;;4.95;1.20;;;18.60;99.90;;;;;;5111061;28;20035;-58
2023/08/09 08:44:27;;;;;;;2.22;1.20;;;18.60;99.90;;;;;;5110085;28;20055;-59
2023/08/09 08:46:53;;;;;;;2.28;1.38;;;18.70;99.90;;;;;;5107222;28;20036;-59
2023/08/09 08:49:24;;;;;;;9.52;1.30;;;18.80;99.90;;;;;;5105885;28;20036;-59
2023/08/09 08:51:54;;;;;;;5.63;1.20;;;18.90;99.90;;;;;;5108711;28;20058;-59
2023/08/09 08:54:20;;;;;;;3.50;1.40;;;19.10;99.90;;;;;;5109650;28;20043;-59
2023/08/09 08:56:48;;;;;;;1.40;0.80;;;19.20;99.90;;;;;;5107408;28;20046;-59
2023/08/09 08:59:15;;;;;;;3.15;0.90;;;19.30;99.90;;;;;;5104682;28;20047;-59
2023/08/09 09:01:42;;;;;;;2.70;0.77;;;19.40;99.90;;;;;;5105880;28;20040;-59
2023/08/09 09:04:08;;;;;;;8.40;1.38;;;19.40;99.90;;;;;;5106251;28;20066;-56
2023/08/09 09:06:34;;;;;;;4.78;1.20;;;19.30;99.90;;;;;;5108140;28;20798;-60
2023/08/09 09:09:00;;;;;;;1.73;1.20;;;19.20;99.90;;;;;;5107484;28;20112;-59
2023/08/09 09:11:26;;;;;;;6.07;0.90;;;19.20;99.90;;;;;;5107116;28;20043;-58
2023/08/09 09:13:52;;;;;;;1.52;0.98;;;19.30;99.90;;;;;;5105200;28;20040;-58
2023/08/09 09:16:19;;;;;;;6.05;1.13;;;19.50;99.90;;;;;;5105638;28;20063;-59
2023/08/09 09:18:48;;;;;;;2.42;0.90;;;19.70;99.60;;;;;;5107740;28;20459;-59
2023/08/09 09:21:18;;;;;;;5.40;1.00;;;19.80;99.00;;;;;;5077143;28;20044;-58
2023/08/09 09:23:44;;;;;;;4.95;1.02;;;19.70;98.80;;;;;;5108890;28;20063;-57
2023/08/09 09:26:15;;;;;;;3.25;1.08;;;19.60;98.90;;;;;;5108627;28;20434;-59
2023/08/09 09:28:44;;;;;;;3.38;0.98;;;19.40;98.50;;;;;;5107549;28;20035;-59
2023/08/09 09:31:13;;;;;;;3.15;1.15;;;19.30;98.30;;;;;;5106998;28;20458;-58
2023/08/09 09:33:44;;;;;;;1.58;1.00;;;19.20;98.40;;;;;;5105760;28;20052;-57
2023/08/09 09:36:11;;;;;;;3.00;1.10;;;19.20;98.60;;;;;;5108097;28;20119;-58
2023/08/09 09:38:38;;;;;;;3.25;1.05;;;19.30;98.60;;;;;;5104364;28;20048;-59
2023/08/09 09:41:05;;;;;;;2.15;0.93;;;19.50;98.90;;;;;;5087852;28;20043;-59
2023/08/09 09:43:32;;;;;;;2.15;0.90;;;19.70;98.90;;;;;;5106378;28;20043;-59
2023/08/09 09:45:59;;;;;;;2.42;1.10;;;19.80;98.50;;;;;;5107369;28;20040;-59
2023/08/09 09:48:29;;;;;;;2.05;0.90;;;19.70;98.20;;;;;;5108245;27;20069;-59
2023/08/09 09:50:56;;;;;;;2.05;1.00;;;19.60;97.90;;;;;;5107731;28;20031;-59
2023/08/09 09:53:22;;;;;;;4.35;1.05;;;19.50;98.10;;;;;;5107260;28;20155;-59
2023/08/09 09:55:50;;;;;;;2.50;1.55;;;19.40;98.50;;;;;;5087360;28;20047;-58
2023/08/09 09:58:16;;;;;;;2.15;1.20;;;19.60;99.00;;;;;;5087299;28;20039;-59
2023/08/09 10:00:53;;;;;;;1.42;1.13;;;19.90;99.10;;;;;;5105823;28;20035;-57
2023/08/09 10:03:23;;;;;;;2.97;1.10;;;20.20;98.60;;;;;;5107187;28;20047;-57
2023/08/09 10:05:51;;;;;;;2.05;1.20;;;20.60;98.10;;;;;;5106600;28;20039;-58
2023/08/09 10:08:20;;;;;;;1.40;0.85;;;20.80;97.60;;;;;;5107102;28;20035;-57
2023/08/09 10:10:49;;;;;;;2.20;1.10;;;21.10;96.80;;;;;;5108196;28;20032;-58
2023/08/09 10:13:21;;;;;;;4.57;1.20;;;21.20;95.80;;;;;;5104558;28;20097;-59
2023/08/09 10:15:53;;;;;;;1.20;0.95;;;21.50;95.90;;;;;;5106709;27;20055;-58
2023/08/09 10:18:43;;;;;;;1.63;1.20;;;21.60;95.10;;;;;;5105313;28;20066;-59
2023/08/09 10:21:11;;;;;;;3.35;1.10;;;21.70;95.10;;;;;;5107598;28;20118;-59
2023/08/09 10:23:36;;;;;;;2.92;1.10;;;21.80;95.10;;;;;;5089668;28;20055;-60
2023/08/09 10:26:02;;;;;;;2.13;0.90;;;21.70;94.60;;;;;;5106504;28;20032;-59
2023/08/09 10:29:01;;;;;;;1.40;1.13;;;21.50;93.90;;;;;;5107398;28;20059;-58
2023/08/09 10:31:53;;;;;;;2.30;1.08;;;21.10;93.30;;;;;;5086703;28;20079;-60
2023/08/09 10:34:36;;;;;;;3.83;1.27;;;20.80;93.20;;;;;;5108413;28;20040;-60
2023/08/09 10:37:04;;;;;;;3.65;1.00;;;21.00;93.40;;;;;;5091724;28;20051;-60
2023/08/09 10:39:31;;;;;;;2.70;1.00;;;21.20;93.20;;;;;;5105288;28;20055;-57
2023/08/09 10:42:15;;;;;;;2.47;0.90;;;21.50;93.30;;;;;;5106556;28;20046;-55
2023/08/09 10:44:51;;;;;;;1.95;1.00;;;21.70;93.30;;;;;;5109731;28;20032;-60
2023/08/09 10:47:24;;;;;;;1.70;1.02;;;21.70;92.00;;;;;;5108565;28;20054;-60
2023/08/09 10:49:53;;;;;;;1.13;0.98;;;21.40;91.50;;;;;;5107690;28;20032;-59
2023/08/09 10:52:28;;;;;;;3.45;1.10;;;21.20;91.60;;;;;;5105515;28;20055;-58
2023/08/09 10:55:24;;;;;;;1.55;0.93;;;21.20;91.60;;;;;;5106895;28;20043;-59
2023/08/09 10:57:51;;;;;;;2.67;1.10;;;21.40;91.20;;;;;;5091416;28;21568;-57
2023/08/09 11:00:22;;;;;;;5.22;1.20;;;21.40;90.70;;;;;;5108625;28;20055;-59
2023/08/09 11:02:58;;;;;;;1.77;0.90;;;21.30;90.40;;;;;;5107055;28;20054;-59
2023/08/09 11:05:27;;;;;;;2.63;1.20;;;21.10;90.00;;;;;;5108558;28;20040;-60
2023/08/09 11:07:56;;;;;;;5.00;1.38;;;21.20;90.30;;;;;;5105383;28;20039;-60
2023/08/09 11:10:41;;;;;;;2.17;1.10;;;21.30;90.30;;;;;;5106903;28;20044;-55
2023/08/09 11:13:15;;;;;;;2.45;1.10;;;21.30;90.10;;;;;;5107422;28;20288;-58
2023/08/09 11:15:46;;;;;;;1.85;1.00;;;21.30;90.70;;;;;;5081223;28;20051;-59
2023/08/09 11:18:12;;;;;;;3.20;1.10;;;21.60;90.60;;;;;;5067750;28;20067;-59
2023/08/09 11:20:39;;;;;;;4.45;0.93;;;21.80;90.20;;;;;;5084284;28;20529;-59
2023/08/09 11:23:05;;;;;;;3.08;1.30;;;21.80;89.30;;;;;;5085561;28;20517;-59
2023/08/09 11:25:33;;;;;;;1.85;0.80;;;21.70;88.90;;;;;;5070087;28;20096;-59
2023/08/09 11:28:01;;;;;;;1.55;1.00;;;21.50;87.90;;;;;;5090627;28;20044;-58
2023/08/09 11:30:29;;;;;;;5.20;0.90;;;21.20;86.80;;;;;;5090050;28;20115;-57
2023/08/09 11:32:57;;;;;;;3.90;1.13;;;21.30;87.50;;;;;;5090530;28;20135;-60
2023/08/09 11:35:30;;;;;;;4.95;1.17;;;21.40;89.10;;;;;;5070630;28;20050;-58
2023/08/09 11:37:56;;;;;;;3.95;0.90;;;21.40;88.90;;;;;;5087161;28;20588;-58
2023/08/09 11:40:23;;;;;;;1.38;0.88;;;21.30;89.10;;;;;;5076071;28;20040;-58
2023/08/09 11:42:54;;;;;;;4.63;1.25;;;21.20;89.70;;;;;;5085043;28;20503;-59
2023/08/09 11:45:20;;;;;;;5.40;1.20;;;21.00;90.40;;;;;;5087996;28;20044;-56
2023/08/09 11:47:53;;;;;;;1.67;1.00;;;20.80;91.00;;;;;;5088287;28;20048;-56
2023/08/09 11:50:21;;;;;;;4.22;1.10;;;21.00;91.60;;;;;;5087438;28;20047;-59
2023/08/09 11:52:51;;;;;;;2.83;1.08;;;21.30;91.40;;;;;;5069060;28;20052;-59
2023/08/09 11:55:17;;;;;;;1.85;0.90;;;21.30;90.50;;;;;;5087651;28;20048;-58
2023/08/09 11:57:43;;;;;;;5.00;0.90;;;21.10;90.40;;;;;;5087056;28;20039;-57
2023/08/09 12:00:09;;;;;;;5.53;1.30;;;20.90;90.40;;;;;;5087088;28;20130;-57
2023/08/09 12:02:36;;;;;;;3.42;0.95;;;20.70;90.60;;;;;;5088561;28;20043;-59
2023/08/09 12:05:14;;;;;;;3.55;1.20;;;20.50;90.60;;;;;;5070173;28;20032;-58
2023/08/09 12:07:40;;;;;;;2.28;1.10;;;20.40;90.30;;;;;;5085533;28;20078;-58
2023/08/09 12:10:10;;;;;;;2.88;1.10;;;20.30;91.30;;;;;;5085269;28;20142;-57
2023/08/09 12:12:38;;;;;;;3.03;1.00;;;20.30;90.70;;;;;;5085364;28;20040;-57
2023/08/09 12:15:04;;;;;;;4.78;1.60;;;20.20;90.30;;;;;;5085648;28;20036;-59
2023/08/09 12:17:30;;;;;;;3.80;1.45;;;20.10;90.00;;;;;;5085655;28;20040;-59
2023/08/09 12:19:57;;;;;;;2.58;1.13;;;20.00;90.00;;;;;;5084017;28;20081;-59
2023/08/09 12:22:25;;;;;;;3.15;1.20;;;20.00;90.50;;;;;;5084113;28;20118;-59
2023/08/09 12:24:51;;;;;;;2.83;1.23;;;20.00;90.60;;;;;;5084163;28;20032;-59
2023/08/09 12:27:19;;;;;;;5.10;1.25;;;20.10;91.10;;;;;;5084529;28;20078;-59
2023/08/09 12:29:45;;;;;;;8.00;1.30;;;20.30;91.60;;;;;;5083925;28;20040;-59
2023/08/09 12:32:11;;;;;;;4.50;1.25;;;20.70;91.60;;;;;;5083786;28;20040;-59
2023/08/09 12:34:37;;;;;;;3.67;1.27;;;20.80;90.70;;;;;;5081864;28;20119;-59
2023/08/09 12:37:04;;;;;;;3.10;1.20;;;20.80;89.90;;;;;;5084461;28;20051;-55
2023/08/09 12:39:30;;;;;;;4.93;1.10;;;20.70;90.10;;;;;;5084590;28;20036;-59
2023/08/09 12:41:56;;;;;;;6.28;1.20;;;20.80;89.90;;;;;;5084136;28;20085;-58
2023/08/09 12:44:23;;;;;;;6.50;1.38;;;20.90;88.90;;;;;;5085751;28;20074;-59
2023/08/09 12:46:49;;;;;;;5.28;1.10;;;20.80;86.80;;;;;;5082649;28;20032;-59
2023/08/09 12:49:15;;;;;;;9.45;1.30;;;20.90;86.10;;;;;;5084632;28;20041;-59
2023/08/09 12:51:40;;;;;;;3.92;1.08;;;21.20;86.30;;;;;;5084200;28;20135;-57
2023/08/09 12:54:09;;;;;;;3.65;1.15;;;21.60;86.70;;;;;;5083784;28;20529;-58
2023/08/09 12:56:36;;;;;;;4.35;1.30;;;22.10;85.30;;;;;;5084400;28;20454;-58
2023/08/09 12:59:02;;;;;;;3.80;1.40;;;22.30;85.60;;;;;;5082732;28;20497;-58
2023/08/09 13:01:28;;;;;;;7.47;1.48;;;22.40;84.70;;;;;;5082750;28;20064;-59